Time;durP1;ratioP1;P1;durP2;ratioP2;P2;SDS_P1;SDS_P2;PMS_P1;PMS_P2;Temp;Humidity;BMP_temperature;BMP_pressure;BME280_temperature;BME280_humidity;BME280_pressure;Samples;Min_cycle;Max_cycle;Signal;HPM_P1;HPM_P2
2023/07/14 00:03:59;;;;;;;15.55;9.85;;;;;;;;;;8430183;28;20075;-93
2023/07/14 00:08:04;;;;;;;34.08;14.55;;;;;;;;;;8429987;28;20110;-82
2023/07/14 00:12:08;;;;;;;16.80;10.55;;;;;;;;;;8429672;28;20072;-83
2023/07/14 00:16:14;;;;;;;20.05;11.52;;;;;;;;;;8429424;28;20091;-92
2023/07/14 00:20:20;;;;;;;23.48;11.35;;;;;;;;;;8417782;28;20435;-92
2023/07/14 00:24:25;;;;;;;17.63;10.40;;;;;;;;;;8429660;28;20466;-89
2023/07/14 00:28:28;;;;;;;49.90;19.10;;;;;;;;;;8416341;28;20055;-91
2023/07/14 00:32:30;;;;;;;19.08;11.95;;;;;;;;;;8430075;28;20036;-92
2023/07/14 00:36:33;;;;;;;16.02;11.00;;;;;;;;;;8429699;28;20089;-82
2023/07/14 00:40:39;;;;;;;18.98;10.52;;;;;;;;;;8429414;28;20047;-92
2023/07/14 00:44:43;;;;;;;28.13;14.13;;;;;;;;;;8428120;28;20124;-82
2023/07/14 00:48:45;;;;;;;18.08;11.05;;;;;;;;;;8429925;28;20547;-92
2023/07/14 00:52:48;;;;;;;21.70;11.10;;;;;;;;;;8429302;28;20048;-86
2023/07/14 00:56:54;;;;;;;17.80;10.65;;;;;;;;;;8428915;28;20105;-83
2023/07/14 01:01:10;;;;;;;16.60;9.75;;;;;;;;;;8429569;28;20101;-92
2023/07/14 01:05:13;;;;;;;19.60;10.88;;;;;;;;;;8417586;28;20399;-84
2023/07/14 01:09:16;;;;;;;21.08;12.02;;;;;;;;;;8423293;28;20123;-83
2023/07/14 01:13:21;;;;;;;21.25;12.18;;;;;;;;;;8409817;28;20415;-82
2023/07/14 01:17:24;;;;;;;29.30;15.18;;;;;;;;;;8422477;28;20090;-93
2023/07/14 01:21:27;;;;;;;29.05;14.70;;;;;;;;;;8428370;28;20075;-82
2023/07/14 01:25:42;;;;;;;21.20;11.65;;;;;;;;;;8425477;28;20120;-85
2023/07/14 01:29:47;;;;;;;18.95;11.18;;;;;;;;;;8434096;28;20079;-82
2023/07/14 01:43:32;;;;;;;20.05;11.38;;;;;;;;;;8447230;28;20067;-85
2023/07/14 01:47:37;;;;;;;31.35;14.82;;;;;;;;;;8457940;28;20055;-84
2023/07/14 01:56:24;;;;;;;21.30;12.73;;;;;;;;;;8442047;28;20052;-85
2023/07/14 02:00:39;;;;;;;20.73;11.98;;;;;;;;;;8426249;28;20110;-84
2023/07/14 02:04:49;;;;;;;21.10;12.00;;;;;;;;;;8447486;28;20056;-85
2023/07/14 02:09:03;;;;;;;19.13;11.27;;;;;;;;;;8437721;28;20066;-84
2023/07/14 02:13:21;;;;;;;18.90;12.15;;;;;;;;;;8374726;28;20077;-86
2023/07/14 02:17:38;;;;;;;22.70;12.00;;;;;;;;;;8433273;28;20052;-84
2023/07/14 02:21:50;;;;;;;16.23;10.73;;;;;;;;;;8432496;28;20048;-85
2023/07/14 02:26:26;;;;;;;24.02;13.43;;;;;;;;;;8447218;28;20582;-85
2023/07/14 02:30:39;;;;;;;20.85;12.85;;;;;;;;;;8422709;28;20094;-85
2023/07/14 02:39:12;;;;;;;15.35;10.25;;;;;;;;;;8374239;28;20055;-85
2023/07/14 02:43:21;;;;;;;17.95;11.32;;;;;;;;;;8396289;28;20461;-84
2023/07/14 02:47:32;;;;;;;20.42;10.45;;;;;;;;;;8432237;28;20111;-84
2023/07/14 02:51:36;;;;;;;19.55;11.07;;;;;;;;;;8456744;28;20462;-84
2023/07/14 02:55:44;;;;;;;19.63;9.90;;;;;;;;;;8450578;28;20052;-85
2023/07/14 02:59:59;;;;;;;24.65;10.57;;;;;;;;;;8438437;28;20032;-85
2023/07/14 03:04:06;;;;;;;16.92;11.05;;;;;;;;;;8449792;28;20048;-84
2023/07/14 03:08:23;;;;;;;19.52;11.05;;;;;;;;;;8459395;28;20052;-83
2023/07/14 03:12:49;;;;;;;18.40;10.25;;;;;;;;;;8422269;28;20104;-85
2023/07/14 03:16:58;;;;;;;13.82;9.38;;;;;;;;;;8432191;28;20059;-85
2023/07/14 03:26:17;;;;;;;17.00;8.82;;;;;;;;;;8429421;28;20052;-84
2023/07/14 03:30:29;;;;;;;12.27;8.48;;;;;;;;;;8418834;28;20047;-84
2023/07/14 03:34:51;;;;;;;12.45;8.23;;;;;;;;;;8451463;28;20063;-84
2023/07/14 03:39:32;;;;;;;12.40;8.65;;;;;;;;;;8455168;28;20060;-84
2023/07/14 03:52:30;;;;;;;10.00;7.10;;;;;;;;;;8385407;28;20052;-85
2023/07/14 04:10:32;;;;;;;16.63;6.75;;;;;;;;;;8359132;28;20057;-84
2023/07/14 04:14:42;;;;;;;10.25;7.20;;;;;;;;;;8383830;28;20036;-86
2023/07/14 04:18:51;;;;;;;8.18;6.97;;;;;;;;;;8359359;28;20053;-84
2023/07/14 04:23:05;;;;;;;15.43;6.50;;;;;;;;;;8415050;28;20066;-85
2023/07/14 04:27:21;;;;;;;10.80;6.20;;;;;;;;;;8453930;28;20052;-84
2023/07/14 04:31:25;;;;;;;10.38;5.57;;;;;;;;;;8455114;28;20052;-84
2023/07/14 04:35:31;;;;;;;8.27;5.20;;;;;;;;;;8453552;28;20048;-84
2023/07/14 04:40:09;;;;;;;9.30;5.30;;;;;;;;;;8451689;28;20059;-84
2023/07/14 04:44:28;;;;;;;8.80;5.60;;;;;;;;;;8454110;28;20060;-84
2023/07/14 04:48:31;;;;;;;10.23;8.52;;;;;;;;;;8453572;28;20056;-84
2023/07/14 04:52:44;;;;;;;9.05;8.15;;;;;;;;;;8435838;28;20055;-84
2023/07/14 04:56:55;;;;;;;11.02;5.70;;;;;;;;;;8448031;28;20663;-85
2023/07/14 05:01:09;;;;;;;8.82;5.20;;;;;;;;;;8431022;28;20052;-84
2023/07/14 05:05:35;;;;;;;8.15;5.30;;;;;;;;;;8450119;28;20047;-85
2023/07/14 05:10:05;;;;;;;7.70;4.40;;;;;;;;;;8468748;28;20028;-85
2023/07/14 05:18:32;;;;;;;6.88;3.63;;;;;;;;;;8435417;28;20625;-85
2023/07/14 05:22:39;;;;;;;5.85;3.50;;;;;;;;;;8444677;28;20070;-84
2023/07/14 05:31:21;;;;;;;7.32;3.70;;;;;;;;;;8450543;28;20052;-84
2023/07/14 05:35:39;;;;;;;5.47;3.50;;;;;;;;;;8454263;28;20088;-85
2023/07/14 05:39:44;;;;;;;7.57;3.50;;;;;;;;;;8462754;28;20034;-84
2023/07/14 05:43:58;;;;;;;6.50;3.30;;;;;;;;;;8456972;28;20059;-84
2023/07/14 05:48:21;;;;;;;9.55;3.30;;;;;;;;;;8452954;28;20078;-84
2023/07/14 05:52:29;;;;;;;6.40;3.38;;;;;;;;;;8449004;28;20059;-85
2023/07/14 05:56:55;;;;;;;7.03;3.45;;;;;;;;;;8459641;28;20048;-85
2023/07/14 06:05:49;;;;;;;7.78;3.53;;;;;;;;;;8461416;28;20067;-85
2023/07/14 06:10:11;;;;;;;6.13;2.97;;;;;;;;;;8462779;28;20052;-84
2023/07/14 06:18:55;;;;;;;6.67;3.60;;;;;;;;;;8462971;28;20051;-85
2023/07/14 06:23:21;;;;;;;5.80;3.03;;;;;;;;;;8462713;28;20796;-85
2023/07/14 06:27:35;;;;;;;6.57;3.27;;;;;;;;;;8462397;28;20048;-84
2023/07/14 06:36:24;;;;;;;6.05;3.17;;;;;;;;;;8461559;28;20483;-85
2023/07/14 06:41:22;;;;;;;8.93;3.10;;;;;;;;;;8456151;28;20052;-85
2023/07/14 06:54:21;;;;;;;5.07;3.28;;;;;;;;;;8435067;28;20063;-85
2023/07/14 06:58:39;;;;;;;11.55;3.35;;;;;;;;;;8369284;28;20126;-86
2023/07/14 07:02:42;;;;;;;5.28;2.97;;;;;;;;;;8444088;28;20028;-87
2023/07/14 07:06:45;;;;;;;5.63;3.25;;;;;;;;;;8454122;28;20125;-86
2023/07/14 07:10:49;;;;;;;6.82;3.00;;;;;;;;;;8462078;28;20051;-86
2023/07/14 07:14:54;;;;;;;10.85;3.22;;;;;;;;;;8465852;28;20060;-85
2023/07/14 07:18:57;;;;;;;6.60;3.30;;;;;;;;;;8464171;28;20051;-85
2023/07/14 07:23:41;;;;;;;7.63;3.08;;;;;;;;;;8461969;28;20044;-85
2023/07/14 07:32:23;;;;;;;7.55;3.33;;;;;;;;;;8464378;28;20131;-85
2023/07/14 07:36:33;;;;;;;6.95;2.90;;;;;;;;;;8460307;28;20051;-86
2023/07/14 07:40:47;;;;;;;10.65;3.30;;;;;;;;;;8445456;28;20052;-85
2023/07/14 07:44:57;;;;;;;8.02;3.13;;;;;;;;;;8463017;28;20040;-85
2023/07/14 07:49:13;;;;;;;5.05;2.80;;;;;;;;;;8464187;28;20036;-85
2023/07/14 07:53:32;;;;;;;5.93;2.83;;;;;;;;;;8465282;28;20051;-85
2023/07/14 07:57:40;;;;;;;7.30;2.65;;;;;;;;;;8461615;28;20051;-85
2023/07/14 08:02:15;;;;;;;6.22;2.97;;;;;;;;;;8445504;28;20052;-85
2023/07/14 08:06:49;;;;;;;6.13;2.80;;;;;;;;;;8445308;28;20055;-85
2023/07/14 08:10:53;;;;;;;7.38;2.80;;;;;;;;;;8462497;28;20049;-85
2023/07/14 08:15:12;;;;;;;5.03;2.45;;;;;;;;;;8464071;28;20054;-85
2023/07/14 08:29:11;;;;;;;4.85;2.30;;;;;;;;;;8495508;28;20059;-85
2023/07/14 08:33:14;;;;;;;8.15;2.30;;;;;;;;;;8480813;28;20463;-85
2023/07/14 08:37:18;;;;;;;5.47;2.25;;;;;;;;;;8488194;28;20032;-85
2023/07/14 08:41:49;;;;;;;9.65;2.88;;;;;;;;;;8484177;28;20059;-85
2023/07/14 08:46:10;;;;;;;6.38;2.20;;;;;;;;;;8433581;28;20056;-86
2023/07/14 08:54:49;;;;;;;5.40;2.50;;;;;;;;;;8391260;28;20064;-86
2023/07/14 08:59:05;;;;;;;6.95;2.22;;;;;;;;;;8389146;28;20087;-85
2023/07/14 09:03:32;;;;;;;4.13;2.10;;;;;;;;;;8393236;28;20037;-84
2023/07/14 09:12:56;;;;;;;6.35;2.10;;;;;;;;;;8342120;28;20068;-85
2023/07/14 09:17:12;;;;;;;5.78;2.42;;;;;;;;;;8349080;28;20061;-84
2023/07/14 09:26:37;;;;;;;4.07;2.10;;;;;;;;;;8356990;28;20060;-85
2023/07/14 09:31:24;;;;;;;4.38;1.73;;;;;;;;;;8342609;28;20525;-85
2023/07/14 09:40:42;;;;;;;4.78;2.00;;;;;;;;;;8318590;28;20047;-87
2023/07/14 09:44:55;;;;;;;4.63;1.67;;;;;;;;;;8334685;28;20044;-86
2023/07/14 09:49:17;;;;;;;2.78;1.52;;;;;;;;;;8358568;28;20053;-85
2023/07/14 09:53:28;;;;;;;3.40;1.77;;;;;;;;;;8402736;28;20053;-84
2023/07/14 09:57:51;;;;;;;4.15;1.77;;;;;;;;;;8393627;28;20132;-85
2023/07/14 10:06:50;;;;;;;3.30;1.83;;;;;;;;;;8390315;28;20060;-86
2023/07/14 10:11:00;;;;;;;;;;;;;;;;;;8336914;28;20120;-85
2023/07/14 10:15:38;;;;;;;2.60;1.80;;;;;;;;;;8327503;28;19980;-85
2023/07/14 10:24:28;;;;;;;3.08;1.58;;;;;;;;;;8357421;28;20057;-85
2023/07/14 10:29:03;;;;;;;7.60;2.17;;;;;;;;;;8319436;28;20048;-85
2023/07/14 10:33:24;;;;;;;3.75;1.60;;;;;;;;;;8411410;28;20148;-86
2023/07/14 10:38:02;;;;;;;4.20;1.63;;;;;;;;;;8415970;28;20060;-86
2023/07/14 10:42:26;;;;;;;3.05;1.70;;;;;;;;;;8404152;28;20061;-85
2023/07/14 10:46:37;;;;;;;2.25;1.70;;;;;;;;;;8348494;28;20052;-85
2023/07/14 10:51:50;;;;;;;2.42;1.55;;;;;;;;;;8394917;28;20055;-87
2023/07/14 10:56:45;;;;;;;1.75;1.60;;;;;;;;;;8395863;28;20057;-85
2023/07/14 11:01:17;;;;;;;4.18;1.45;;;;;;;;;;8354405;28;20069;-85
2023/07/14 11:05:51;;;;;;;3.60;1.67;;;;;;;;;;8384163;28;20108;-85
2023/07/14 11:10:14;;;;;;;4.93;1.73;;;;;;;;;;8354893;28;20051;-86
2023/07/14 11:14:51;;;;;;;4.78;1.90;;;;;;;;;;8333152;28;20064;-86
2023/07/14 11:19:52;;;;;;;3.15;1.70;;;;;;;;;;8348474;28;20057;-86
2023/07/14 11:24:49;;;;;;;2.97;1.65;;;;;;;;;;8284207;28;20058;-85
2023/07/14 11:44:50;;;;;;;4.82;2.00;;;;;;;;;;8227978;28;20039;-84
2023/07/14 11:49:52;;;;;;;3.90;2.10;;;;;;;;;;8241939;28;20058;-84
2023/07/14 11:54:21;;;;;;;5.57;1.95;;;;;;;;;;8238807;28;20039;-85
2023/07/14 11:58:30;;;;;;;4.97;2.20;;;;;;;;;;8226763;28;20092;-85
2023/07/14 12:02:59;;;;;;;3.75;1.90;;;;;;;;;;8304975;28;20145;-85
2023/07/14 12:07:18;;;;;;;4.80;2.00;;;;;;;;;;8284617;28;20112;-85
2023/07/14 12:12:02;;;;;;;3.30;2.15;;;;;;;;;;8350186;28;20058;-85
2023/07/14 12:16:28;;;;;;;5.00;2.05;;;;;;;;;;8376600;28;20056;-85
2023/07/14 12:20:42;;;;;;;6.22;1.90;;;;;;;;;;8345532;28;20872;-85
2023/07/14 12:29:28;;;;;;;3.65;1.80;;;;;;;;;;8339499;28;20113;-85
2023/07/14 12:33:47;;;;;;;4.10;2.05;;;;;;;;;;8352119;28;20115;-86
2023/07/14 12:38:03;;;;;;;3.20;1.85;;;;;;;;;;8354854;28;20133;-85
2023/07/14 12:42:11;;;;;;;3.70;1.83;;;;;;;;;;8323217;28;20054;-85
2023/07/14 12:56:40;;;;;;;1.88;1.65;;;;;;;;;;8459029;28;20859;-86
2023/07/14 13:06:01;;;;;;;5.40;2.00;;;;;;;;;;8310102;28;20062;-86
2023/07/14 13:15:18;;;;;;;3.85;2.00;;;;;;;;;;8310837;28;20738;-93
2023/07/14 13:19:27;;;;;;;3.08;1.70;;;;;;;;;;8323081;28;20061;-86
2023/07/14 13:37:01;;;;;;;4.55;1.80;;;;;;;;;;8457612;27;20673;-92
2023/07/14 13:41:09;;;;;;;3.13;1.95;;;;;;;;;;8494548;27;20055;-93
2023/07/14 13:45:17;;;;;;;4.55;1.90;;;;;;;;;;8504518;27;20062;-85
2023/07/14 13:49:21;;;;;;;5.22;1.70;;;;;;;;;;8472101;27;20051;-85
2023/07/14 13:53:27;;;;;;;6.72;1.88;;;;;;;;;;8482008;27;20544;-89
2023/07/14 13:57:31;;;;;;;8.18;1.70;;;;;;;;;;8492361;27;20098;-95
2023/07/14 14:01:37;;;;;;;2.70;1.80;;;;;;;;;;8463584;27;20478;-94
2023/07/14 14:05:47;;;;;;;5.30;1.90;;;;;;;;;;8487033;27;20070;-95
2023/07/14 14:09:53;;;;;;;3.72;2.00;;;;;;;;;;8488406;27;20050;-95
2023/07/14 14:13:58;;;;;;;2.30;1.60;;;;;;;;;;8469911;27;20150;-92
2023/07/14 14:18:07;;;;;;;4.90;2.17;;;;;;;;;;8485448;27;20055;-95
2023/07/14 14:22:22;;;;;;;3.92;1.92;;;;;;;;;;8482951;27;20091;-96
2023/07/14 14:26:37;;;;;;;3.17;1.70;;;;;;;;;;8496472;27;20063;-87
2023/07/14 14:30:45;;;;;;;2.40;1.80;;;;;;;;;;8472721;28;20151;-95
2023/07/14 14:34:55;;;;;;;4.53;1.85;;;;;;;;;;8401004;28;20139;-95
2023/07/14 14:39:06;;;;;;;3.42;1.60;;;;;;;;;;8384712;28;20059;-96
2023/07/14 14:47:20;;;;;;;6.97;2.00;;;;;;;;;;10119469;22;20078;-92
2023/07/14 16:38:20;;;;;;;4.82;1.85;;;;;;;;;;8650003;22;20053;-88
2023/07/14 16:42:35;;;;;;;4.72;1.67;;;;;;;;;;8397666;28;20040;-86
2023/07/14 16:46:57;;;;;;;4.22;1.85;;;;;;;;;;8379940;28;20069;-86
2023/07/14 16:51:22;;;;;;;3.35;1.60;;;;;;;;;;8429449;28;20055;-93
2023/07/14 16:56:08;;;;;;;2.85;2.05;;;;;;;;;;8423545;28;20041;-86
2023/07/14 17:00:26;;;;;;;5.22;3.38;;;;;;;;;;8423995;28;20087;-89
2023/07/14 17:05:02;;;;;;;3.25;2.38;;;;;;;;;;8343020;28;20058;-90
2023/07/14 17:09:14;;;;;;;8.33;4.00;;;;;;;;;;8352150;28;20054;-87
2023/07/14 17:13:20;;;;;;;9.73;4.97;;;;;;;;;;8420019;28;20059;-86
2023/07/14 17:17:23;;;;;;;9.55;5.10;;;;;;;;;;8418847;28;20151;-93
2023/07/14 17:21:27;;;;;;;8.90;4.35;;;;;;;;;;8408595;28;20048;-89
2023/07/14 17:25:36;;;;;;;8.45;4.30;;;;;;;;;;8416013;28;20062;-93
2023/07/14 17:29:41;;;;;;;9.25;4.57;;;;;;;;;;8415198;28;20056;-89
2023/07/14 18:09:54;;;;;;;7.38;3.15;;;;;;;;;;8935464;23;20053;-96
2023/07/14 18:13:57;;;;;;;6.57;3.00;;;;;;;;;;8395615;28;20057;-91
2023/07/14 18:18:04;;;;;;;4.65;2.85;;;;;;;;;;8385074;28;20053;-90
2023/07/14 18:22:18;;;;;;;7.80;2.97;;;;;;;;;;8401653;28;20071;-93
2023/07/14 18:26:24;;;;;;;6.10;2.72;;;;;;;;;;8370702;28;20056;-88
2023/07/14 18:30:29;;;;;;;8.68;3.97;;;;;;;;;;8389061;28;20052;-96
2023/07/14 21:36:20;;;;;;;6.20;4.10;;;;;;;;;;6725232;26;20118;-84
2023/07/14 21:59:31;;;;;;;7.38;4.38;;;;;;;;;;8189134;29;20062;-85
2023/07/14 22:08:58;;;;;;;8.70;5.22;;;;;;;;;;8157228;29;20131;-88
2023/07/14 22:13:17;;;;;;;7.15;4.53;;;;;;;;;;8146055;29;20063;-85
2023/07/14 22:17:25;;;;;;;7.95;5.22;;;;;;;;;;8168760;29;20083;-96
